sensor_id;sensor_type;location;lat;lon;timestamp;pressure;altitude;pressure_sealevel;temperature
67599;BMP280;62026;39.230;9.122;2023-08-06T00:00:28;100680.16;;;24.32
67599;BMP280;62026;39.230;9.122;2023-08-06T00:02:54;100681.53;;;24.30
67599;BMP280;62026;39.230;9.122;2023-08-06T00:05:20;100678.84;;;24.30
67599;BMP280;62026;39.230;9.122;2023-08-06T00:07:48;100686.75;;;24.26
67599;BMP280;62026;39.230;9.122;2023-08-06T00:10:14;100676.78;;;24.27
67599;BMP280;62026;39.230;9.122;2023-08-06T00:12:41;100686.75;;;24.26
67599;BMP280;62026;39.230;9.122;2023-08-06T00:15:07;100681.97;;;24.23
67599;BMP280;62026;39.230;9.122;2023-08-06T00:17:34;100685.50;;;24.24
67599;BMP280;62026;39.230;9.122;2023-08-06T00:20:02;100708.47;;;24.21
67599;BMP280;62026;39.230;9.122;2023-08-06T00:22:36;100701.94;;;24.22
67599;BMP280;62026;39.230;9.122;2023-08-06T00:25:04;100707.69;;;24.21
67599;BMP280;62026;39.230;9.122;2023-08-06T00:27:31;100707.69;;;24.21
67599;BMP280;62026;39.230;9.122;2023-08-06T00:29:58;100704.19;;;24.20
67599;BMP280;62026;39.230;9.122;2023-08-06T00:32:24;100701.78;;;24.19
67599;BMP280;62026;39.230;9.122;2023-08-06T00:34:50;100695.91;;;24.17
67599;BMP280;62026;39.230;9.122;2023-08-06T00:37:17;100685.38;;;24.15
67599;BMP280;62026;39.230;9.122;2023-08-06T00:39:44;100696.97;;;24.16
67599;BMP280;62026;39.230;9.122;2023-08-06T00:42:11;100693.47;;;24.15
67599;BMP280;62026;39.230;9.122;2023-08-06T00:44:39;100687.63;;;24.13
67599;BMP280;62026;39.230;9.122;2023-08-06T00:47:07;100669.03;;;24.12
67599;BMP280;62026;39.230;9.122;2023-08-06T00:49:37;100662.63;;;24.08
67599;BMP280;62026;39.230;9.122;2023-08-06T00:52:06;100663.75;;;24.07
67599;BMP280;62026;39.230;9.122;2023-08-06T00:54:36;100654.06;;;24.06
67599;BMP280;62026;39.230;9.122;2023-08-06T00:57:04;100661.06;;;24.07
67599;BMP280;62026;39.230;9.122;2023-08-06T00:59:32;100657.88;;;24.05
67599;BMP280;62026;39.230;9.122;2023-08-06T01:01:58;100662.16;;;24.06
67599;BMP280;62026;39.230;9.122;2023-08-06T01:04:25;100663.25;;;24.05
67599;BMP280;62026;39.230;9.122;2023-08-06T01:13:47;100659.56;;;24.01
67599;BMP280;62026;39.230;9.122;2023-08-06T01:16:21;100656.88;;;24.01
67599;BMP280;62026;39.230;9.122;2023-08-06T01:18:48;100664.47;;;23.99
67599;BMP280;62026;39.230;9.122;2023-08-06T01:21:18;100663.09;;;24.01
67599;BMP280;62026;39.230;9.122;2023-08-06T01:23:46;100675.28;;;23.99
67599;BMP280;62026;39.230;9.122;2023-08-06T01:26:23;100678.44;;;24.01
67599;BMP280;62026;39.230;9.122;2023-08-06T01:29:07;100670.69;;;23.99
67599;BMP280;62026;39.230;9.122;2023-08-06T01:31:38;100672.56;;;23.99
67599;BMP280;62026;39.230;9.122;2023-08-06T01:34:10;100670.97;;;23.98
67599;BMP280;62026;39.230;9.122;2023-08-06T01:36:39;100673.03;;;24.01
67599;BMP280;62026;39.230;9.122;2023-08-06T01:39:06;100670.50;;;23.95
67599;BMP280;62026;39.230;9.122;2023-08-06T01:41:32;100669.06;;;23.98
67599;BMP280;62026;39.230;9.122;2023-08-06T01:43:58;100666.88;;;24.00
67599;BMP280;62026;39.230;9.122;2023-08-06T01:46:24;100672.88;;;23.97
67599;BMP280;62026;39.230;9.122;2023-08-06T01:48:51;100661.00;;;23.98
67599;BMP280;62026;39.230;9.122;2023-08-06T01:51:17;100664.00;;;23.97
67599;BMP280;62026;39.230;9.122;2023-08-06T01:53:43;100663.22;;;23.96
67599;BMP280;62026;39.230;9.122;2023-08-06T01:56:09;100659.22;;;23.93
67599;BMP280;62026;39.230;9.122;2023-08-06T01:58:36;100645.72;;;23.93
67599;BMP280;62026;39.230;9.122;2023-08-06T02:01:02;100649.53;;;23.92
67599;BMP280;62026;39.230;9.122;2023-08-06T02:03:28;100638.72;;;23.92
67599;BMP280;62026;39.230;9.122;2023-08-06T02:05:54;100641.72;;;23.91
67599;BMP280;62026;39.230;9.122;2023-08-06T02:08:20;100638.56;;;23.89
67599;BMP280;62026;39.230;9.122;2023-08-06T02:10:46;100632.38;;;23.88
67599;BMP280;62026;39.230;9.122;2023-08-06T02:13:12;100621.09;;;23.86
67599;BMP280;62026;39.230;9.122;2023-08-06T02:15:46;100632.03;;;23.90
67599;BMP280;62026;39.230;9.122;2023-08-06T02:18:15;100630.28;;;23.85
67599;BMP280;62026;39.230;9.122;2023-08-06T02:20:42;100644.75;;;23.89
67599;BMP280;62026;39.230;9.122;2023-08-06T02:23:09;100636.66;;;23.89
67599;BMP280;62026;39.230;9.122;2023-08-06T02:25:35;100639.97;;;23.86
67599;BMP280;62026;39.230;9.122;2023-08-06T02:28:01;100633.16;;;23.89
67599;BMP280;62026;39.230;9.122;2023-08-06T02:30:27;100639.19;;;23.86
67599;BMP280;62026;39.230;9.122;2023-08-06T02:32:53;100629.97;;;23.87
67599;BMP280;62026;39.230;9.122;2023-08-06T02:35:20;100637.44;;;23.90
67599;BMP280;62026;39.230;9.122;2023-08-06T02:37:46;100630.78;;;23.87
67599;BMP280;62026;39.230;9.122;2023-08-06T02:40:12;100631.88;;;23.86
67599;BMP280;62026;39.230;9.122;2023-08-06T02:42:38;100622.19;;;23.85
67599;BMP280;62026;39.230;9.122;2023-08-06T02:45:04;100627.41;;;23.82
67599;BMP280;62026;39.230;9.122;2023-08-06T02:47:30;100617.38;;;23.82
67599;BMP280;62026;39.230;9.122;2023-08-06T02:49:57;100615.81;;;23.81
67599;BMP280;62026;39.230;9.122;2023-08-06T02:52:24;100615.81;;;23.81
67599;BMP280;62026;39.230;9.122;2023-08-06T02:54:50;100609.63;;;23.81
67599;BMP280;62026;39.230;9.122;2023-08-06T02:57:16;100611.22;;;23.82
67599;BMP280;62026;39.230;9.122;2023-08-06T02:59:42;100608.03;;;23.80
67599;BMP280;62026;39.230;9.122;2023-08-06T03:02:18;100604.22;;;23.81
67599;BMP280;62026;39.230;9.122;2023-08-06T03:04:53;100597.56;;;23.78
67599;BMP280;62026;39.230;9.122;2023-08-06T03:07:22;100586.25;;;23.76
67599;BMP280;62026;39.230;9.122;2023-08-06T03:09:54;100595.44;;;23.75
67599;BMP280;62026;39.230;9.122;2023-08-06T03:12:21;100586.88;;;23.73
67599;BMP280;62026;39.230;9.122;2023-08-06T03:14:47;100574.00;;;23.70
67599;BMP280;62026;39.230;9.122;2023-08-06T03:17:14;100574.81;;;23.71
67599;BMP280;62026;39.230;9.122;2023-08-06T03:19:41;100573.50;;;23.68
67599;BMP280;62026;39.230;9.122;2023-08-06T03:22:07;100562.53;;;23.65
67599;BMP280;62026;39.230;9.122;2023-08-06T03:24:34;100553.94;;;23.63
67599;BMP280;62026;39.230;9.122;2023-08-06T03:27:00;100565.81;;;23.62
67599;BMP280;62026;39.230;9.122;2023-08-06T03:29:26;100570.94;;;23.63
67599;BMP280;62026;39.230;9.122;2023-08-06T03:31:53;100569.94;;;23.59
67599;BMP280;62026;39.230;9.122;2023-08-06T03:34:19;100568.34;;;23.58
67599;BMP280;62026;39.230;9.122;2023-08-06T03:36:47;100576.75;;;23.57
67599;BMP280;62026;39.230;9.122;2023-08-06T03:39:13;100590.50;;;23.55
67599;BMP280;62026;39.230;9.122;2023-08-06T03:41:41;100578.13;;;23.54
67599;BMP280;62026;39.230;9.122;2023-08-06T03:44:07;100579.56;;;23.51
67599;BMP280;62026;39.230;9.122;2023-08-06T03:46:33;100577.16;;;23.50
67599;BMP280;62026;39.230;9.122;2023-08-06T03:49:00;100574.00;;;23.48
67599;BMP280;62026;39.230;9.122;2023-08-06T03:51:26;100583.13;;;23.47
67599;BMP280;62026;39.230;9.122;2023-08-06T03:53:53;100588.06;;;23.45
67599;BMP280;62026;39.230;9.122;2023-08-06T03:56:19;100591.84;;;23.44
67599;BMP280;62026;39.230;9.122;2023-08-06T03:58:45;100585.97;;;23.42
67599;BMP280;62026;39.230;9.122;2023-08-06T04:01:12;100587.88;;;23.41
67599;BMP280;62026;39.230;9.122;2023-08-06T04:03:44;100598.94;;;23.40
67599;BMP280;62026;39.230;9.122;2023-08-06T04:06:10;100604.34;;;23.40
67599;BMP280;62026;39.230;9.122;2023-08-06T04:08:36;100601.94;;;23.38
67599;BMP280;62026;39.230;9.122;2023-08-06T04:11:02;100605.22;;;23.35
67599;BMP280;62026;39.230;9.122;2023-08-06T04:13:29;100607.44;;;23.33
67599;BMP280;62026;39.230;9.122;2023-08-06T04:16:03;100614.09;;;23.36
67599;BMP280;62026;39.230;9.122;2023-08-06T04:18:31;100607.13;;;23.35
67599;BMP280;62026;39.230;9.122;2023-08-06T04:20:57;100597.47;;;23.34
67599;BMP280;62026;39.230;9.122;2023-08-06T04:23:23;100608.25;;;23.34
67599;BMP280;62026;39.230;9.122;2023-08-06T04:25:56;100621.72;;;23.34
67599;BMP280;62026;39.230;9.122;2023-08-06T04:28:23;100627.91;;;23.34
67599;BMP280;62026;39.230;9.122;2023-08-06T04:30:48;100623.59;;;23.33
67599;BMP280;62026;39.230;9.122;2023-08-06T04:33:14;100621.19;;;23.32
67599;BMP280;62026;39.230;9.122;2023-08-06T04:35:41;100630.91;;;23.33
67599;BMP280;62026;39.230;9.122;2023-08-06T04:38:07;100636.28;;;23.33
67599;BMP280;62026;39.230;9.122;2023-08-06T04:40:35;100652.44;;;23.33
67599;BMP280;62026;39.230;9.122;2023-08-06T04:43:02;100656.41;;;23.35
67599;BMP280;62026;39.230;9.122;2023-08-06T04:45:30;100646.25;;;23.32
67599;BMP280;62026;39.230;9.122;2023-08-06T04:47:56;100650.22;;;23.35
67599;BMP280;62026;39.230;9.122;2023-08-06T04:50:22;100657.84;;;23.33
67599;BMP280;62026;39.230;9.122;2023-08-06T04:52:48;100665.31;;;23.36
67599;BMP280;62026;39.230;9.122;2023-08-06T04:55:14;100672.75;;;23.39
67599;BMP280;62026;39.230;9.122;2023-08-06T04:57:40;100660.72;;;23.36
67599;BMP280;62026;39.230;9.122;2023-08-06T05:00:06;100671.19;;;23.38
67599;BMP280;62026;39.230;9.122;2023-08-06T05:02:33;100666.91;;;23.37
67599;BMP280;62026;39.230;9.122;2023-08-06T05:05:00;100671.09;;;23.43
67599;BMP280;62026;39.230;9.122;2023-08-06T05:07:26;100662.53;;;23.41
67599;BMP280;62026;39.230;9.122;2023-08-06T05:09:52;100663.81;;;23.43
67599;BMP280;62026;39.230;9.122;2023-08-06T05:12:18;100662.91;;;23.48
67599;BMP280;62026;39.230;9.122;2023-08-06T05:14:43;100658.81;;;23.50
67599;BMP280;62026;39.230;9.122;2023-08-06T05:17:09;100658.97;;;23.54
67599;BMP280;62026;39.230;9.122;2023-08-06T05:19:35;100668.59;;;23.60
67599;BMP280;62026;39.230;9.122;2023-08-06T05:22:01;100663.97;;;23.61
67599;BMP280;62026;39.230;9.122;2023-08-06T05:24:27;100667.84;;;23.68
67599;BMP280;62026;39.230;9.122;2023-08-06T05:26:53;100677.44;;;23.74
67599;BMP280;62026;39.230;9.122;2023-08-06T05:29:19;100671.94;;;23.79
67599;BMP280;62026;39.230;9.122;2023-08-06T05:31:45;100681.50;;;23.85
67599;BMP280;62026;39.230;9.122;2023-08-06T05:34:11;100680.28;;;23.91
67599;BMP280;62026;39.230;9.122;2023-08-06T05:36:37;100675.91;;;23.95
67599;BMP280;62026;39.230;9.122;2023-08-06T05:39:03;100683.84;;;24.01
67599;BMP280;62026;39.230;9.122;2023-08-06T05:41:29;100684.22;;;24.08
67599;BMP280;62026;39.230;9.122;2023-08-06T05:43:55;100679.81;;;24.12
67599;BMP280;62026;39.230;9.122;2023-08-06T05:46:21;100669.72;;;24.17
67599;BMP280;62026;39.230;9.122;2023-08-06T05:48:47;100688.19;;;24.24
67599;BMP280;62026;39.230;9.122;2023-08-06T05:51:13;100698.25;;;24.32
67599;BMP280;62026;39.230;9.122;2023-08-06T05:53:39;100689.19;;;24.36
67599;BMP280;62026;39.230;9.122;2023-08-06T05:56:05;100691.59;;;24.38
67599;BMP280;62026;39.230;9.122;2023-08-06T05:58:30;100688.41;;;24.36
67599;BMP280;62026;39.230;9.122;2023-08-06T06:00:57;100693.69;;;24.41
67599;BMP280;62026;39.230;9.122;2023-08-06T06:03:23;100695.53;;;24.54
67599;BMP280;62026;39.230;9.122;2023-08-06T06:05:49;100684.47;;;24.64
67599;BMP280;62026;39.230;9.122;2023-08-06T06:08:14;100687.06;;;24.69
67599;BMP280;62026;39.230;9.122;2023-08-06T06:10:41;100673.09;;;24.76
67599;BMP280;62026;39.230;9.122;2023-08-06T06:13:07;100686.47;;;24.81
67599;BMP280;62026;39.230;9.122;2023-08-06T06:15:33;100681.25;;;24.85
67599;BMP280;62026;39.230;9.122;2023-08-06T06:17:59;100675.22;;;24.88
67599;BMP280;62026;39.230;9.122;2023-08-06T06:20:25;100664.78;;;24.95
67599;BMP280;62026;39.230;9.122;2023-08-06T06:22:51;100678.94;;;25.00
67599;BMP280;62026;39.230;9.122;2023-08-06T06:25:17;100676.56;;;25.07
67599;BMP280;62026;39.230;9.122;2023-08-06T06:27:43;100675.28;;;25.05
67599;BMP280;62026;39.230;9.122;2023-08-06T06:30:09;100682.31;;;25.14
67599;BMP280;62026;39.230;9.122;2023-08-06T06:32:37;100697.94;;;25.26
67599;BMP280;62026;39.230;9.122;2023-08-06T06:35:03;100682.34;;;25.23
67599;BMP280;62026;39.230;9.122;2023-08-06T06:37:29;100678.22;;;25.34
67599;BMP280;62026;39.230;9.122;2023-08-06T06:39:55;100681.56;;;25.31
67599;BMP280;62026;39.230;9.122;2023-08-06T06:42:21;100682.84;;;25.34
67599;BMP280;62026;39.230;9.122;2023-08-06T06:44:51;100675.41;;;25.39
67599;BMP280;62026;39.230;9.122;2023-08-06T06:47:17;100657.28;;;25.40
67599;BMP280;62026;39.230;9.122;2023-08-06T06:49:42;100651.06;;;25.48
67599;BMP280;62026;39.230;9.122;2023-08-06T06:52:08;100662.03;;;25.51
67599;BMP280;62026;39.230;9.122;2023-08-06T06:54:34;100665.38;;;25.57
67599;BMP280;62026;39.230;9.122;2023-08-06T06:57:00;100661.75;;;25.62
67599;BMP280;62026;39.230;9.122;2023-08-06T06:59:26;100659.84;;;25.71
67599;BMP280;62026;39.230;9.122;2023-08-06T07:01:52;100657.28;;;25.66
67599;BMP280;62026;39.230;9.122;2023-08-06T07:04:18;100669.88;;;25.70
67599;BMP280;62026;39.230;9.122;2023-08-06T07:06:44;100667.16;;;25.79
67599;BMP280;62026;39.230;9.122;2023-08-06T07:09:10;100669.53;;;25.89
67599;BMP280;62026;39.230;9.122;2023-08-06T07:11:36;100663.97;;;25.94
67599;BMP280;62026;39.230;9.122;2023-08-06T07:14:02;100649.66;;;25.93
67599;BMP280;62026;39.230;9.122;2023-08-06T07:16:28;100660.81;;;25.92
67599;BMP280;62026;39.230;9.122;2023-08-06T07:18:55;100642.19;;;25.99
67599;BMP280;62026;39.230;9.122;2023-08-06T07:21:21;100660.47;;;26.02
67599;BMP280;62026;39.230;9.122;2023-08-06T07:23:47;100676.84;;;26.06
67599;BMP280;62026;39.230;9.122;2023-08-06T07:26:16;100671.63;;;26.09
67599;BMP280;62026;39.230;9.122;2023-08-06T07:28:42;100670.78;;;26.17
67599;BMP280;62026;39.230;9.122;2023-08-06T07:31:08;100672.84;;;26.20
67599;BMP280;62026;39.230;9.122;2023-08-06T07:33:34;100666.66;;;26.20
67599;BMP280;62026;39.230;9.122;2023-08-06T07:36:07;100679.56;;;26.23
67599;BMP280;62026;39.230;9.122;2023-08-06T07:38:33;100669.81;;;26.30
67599;BMP280;62026;39.230;9.122;2023-08-06T07:41:02;100675.22;;;26.30
67599;BMP280;62026;39.230;9.122;2023-08-06T07:43:28;100680.78;;;26.43
67599;BMP280;62026;39.230;9.122;2023-08-06T07:45:54;100678.53;;;26.53
67599;BMP280;62026;39.230;9.122;2023-08-06T07:48:23;100681.38;;;26.57
67599;BMP280;62026;39.230;9.122;2023-08-06T07:50:52;100692.84;;;26.62
67599;BMP280;62026;39.230;9.122;2023-08-06T07:53:21;100693.13;;;26.69
67599;BMP280;62026;39.230;9.122;2023-08-06T07:55:51;100680.81;;;26.80
67599;BMP280;62026;39.230;9.122;2023-08-06T07:58:19;100682.09;;;26.83
67599;BMP280;62026;39.230;9.122;2023-08-06T08:00:46;100686.38;;;26.84
67599;BMP280;62026;39.230;9.122;2023-08-06T08:03:14;100676.84;;;26.78
67599;BMP280;62026;39.230;9.122;2023-08-06T08:05:42;100689.84;;;26.93
67599;BMP280;62026;39.230;9.122;2023-08-06T08:08:08;100672.91;;;26.96
67599;BMP280;62026;39.230;9.122;2023-08-06T08:10:35;100688.34;;;27.04
67599;BMP280;62026;39.230;9.122;2023-08-06T08:13:05;100664.22;;;27.11
67599;BMP280;62026;39.230;9.122;2023-08-06T08:15:32;100669.84;;;27.27
67599;BMP280;62026;39.230;9.122;2023-08-06T08:17:59;100673.38;;;27.28
67599;BMP280;62026;39.230;9.122;2023-08-06T08:20:26;100667.59;;;27.38
67599;BMP280;62026;39.230;9.122;2023-08-06T08:22:58;100647.59;;;27.42
67599;BMP280;62026;39.230;9.122;2023-08-06T08:25:25;100652.38;;;27.45
67599;BMP280;62026;39.230;9.122;2023-08-06T08:27:51;100665.19;;;27.57
67599;BMP280;62026;39.230;9.122;2023-08-06T08:30:17;100658.88;;;27.65
67599;BMP280;62026;39.230;9.122;2023-08-06T08:32:42;100650.38;;;27.75
67599;BMP280;62026;39.230;9.122;2023-08-06T08:35:08;100658.03;;;27.73
67599;BMP280;62026;39.230;9.122;2023-08-06T08:37:35;100637.72;;;27.79
67599;BMP280;62026;39.230;9.122;2023-08-06T08:40:02;100650.63;;;27.82
67599;BMP280;62026;39.230;9.122;2023-08-06T08:42:29;100638.41;;;27.88
67599;BMP280;62026;39.230;9.122;2023-08-06T08:44:56;100658.81;;;27.94
67599;BMP280;62026;39.230;9.122;2023-08-06T08:47:24;100648.75;;;27.95
67599;BMP280;62026;39.230;9.122;2023-08-06T08:49:54;100646.13;;;27.98
67599;BMP280;62026;39.230;9.122;2023-08-06T08:52:25;100644.75;;;27.92
67599;BMP280;62026;39.230;9.122;2023-08-06T08:54:52;100635.88;;;28.04
67599;BMP280;62026;39.230;9.122;2023-08-06T08:57:20;100620.94;;;28.10
67599;BMP280;62026;39.230;9.122;2023-08-06T08:59:46;100612.59;;;28.15
67599;BMP280;62026;39.230;9.122;2023-08-06T09:02:14;100612.69;;;28.06
67599;BMP280;62026;39.230;9.122;2023-08-06T09:04:42;100636.22;;;28.15
67599;BMP280;62026;39.230;9.122;2023-08-06T09:07:13;100625.19;;;28.32
67599;BMP280;62026;39.230;9.122;2023-08-06T09:09:43;100630.81;;;28.39
67599;BMP280;62026;39.230;9.122;2023-08-06T09:12:15;100633.91;;;28.37
67599;BMP280;62026;39.230;9.122;2023-08-06T09:14:42;100626.63;;;28.41
67599;BMP280;62026;39.230;9.122;2023-08-06T09:17:09;100632.41;;;28.40
67599;BMP280;62026;39.230;9.122;2023-08-06T09:19:36;100628.91;;;28.39
67599;BMP280;62026;39.230;9.122;2023-08-06T09:22:03;100620.78;;;28.51
67599;BMP280;62026;39.230;9.122;2023-08-06T09:24:29;100640.13;;;28.50
67599;BMP280;62026;39.230;9.122;2023-08-06T09:26:55;100615.09;;;28.57
67599;BMP280;62026;39.230;9.122;2023-08-06T09:29:21;100622.00;;;28.54
67599;BMP280;62026;39.230;9.122;2023-08-06T09:31:49;100610.94;;;28.59
67599;BMP280;62026;39.230;9.122;2023-08-06T09:34:20;100626.09;;;28.60
67599;BMP280;62026;39.230;9.122;2023-08-06T09:36:52;100630.28;;;28.70
67599;BMP280;62026;39.230;9.122;2023-08-06T09:39:21;100616.47;;;28.75
67599;BMP280;62026;39.230;9.122;2023-08-06T09:41:48;100624.38;;;28.80
67599;BMP280;62026;39.230;9.122;2023-08-06T09:44:19;100625.06;;;28.77
67599;BMP280;62026;39.230;9.122;2023-08-06T09:46:52;100620.06;;;28.79
67599;BMP280;62026;39.230;9.122;2023-08-06T09:49:26;100638.97;;;28.87
67599;BMP280;62026;39.230;9.122;2023-08-06T09:51:54;100615.28;;;28.88
67599;BMP280;62026;39.230;9.122;2023-08-06T09:54:25;100630.38;;;28.85
67599;BMP280;62026;39.230;9.122;2023-08-06T09:56:54;100610.00;;;28.79
67599;BMP280;62026;39.230;9.122;2023-08-06T09:59:20;100612.25;;;28.77
67599;BMP280;62026;39.230;9.122;2023-08-06T10:01:47;100615.06;;;28.81
67599;BMP280;62026;39.230;9.122;2023-08-06T10:04:15;100603.41;;;28.80
67599;BMP280;62026;39.230;9.122;2023-08-06T10:06:47;100587.69;;;28.86
67599;BMP280;62026;39.230;9.122;2023-08-06T10:09:16;100579.88;;;28.72
67599;BMP280;62026;39.230;9.122;2023-08-06T10:11:49;100599.72;;;28.61
67599;BMP280;62026;39.230;9.122;2023-08-06T10:14:25;100595.97;;;28.65
67599;BMP280;62026;39.230;9.122;2023-08-06T10:16:53;100597.34;;;28.59
67599;BMP280;62026;39.230;9.122;2023-08-06T10:19:20;100602.78;;;28.59
67599;BMP280;62026;39.230;9.122;2023-08-06T10:22:13;100600.97;;;28.51
67599;BMP280;62026;39.230;9.122;2023-08-06T10:30:30;100618.47;;;28.41
67599;BMP280;62026;39.230;9.122;2023-08-06T10:33:02;100626.75;;;28.33
67599;BMP280;62026;39.230;9.122;2023-08-06T10:35:29;100636.22;;;28.27
67599;BMP280;62026;39.230;9.122;2023-08-06T10:38:09;100625.63;;;28.22
67599;BMP280;62026;39.230;9.122;2023-08-06T10:40:40;100641.78;;;28.18
67599;BMP280;62026;39.230;9.122;2023-08-06T10:43:07;100648.31;;;28.17
67599;BMP280;62026;39.230;9.122;2023-08-06T10:45:36;100649.00;;;28.14
67599;BMP280;62026;39.230;9.122;2023-08-06T10:48:04;100640.09;;;28.14
67599;BMP280;62026;39.230;9.122;2023-08-06T10:50:31;100652.53;;;28.15
67599;BMP280;62026;39.230;9.122;2023-08-06T10:53:04;100641.66;;;28.15
67599;BMP280;62026;39.230;9.122;2023-08-06T10:55:31;100646.28;;;28.14
67599;BMP280;62026;39.230;9.122;2023-08-06T10:57:58;100637.56;;;28.08
67599;BMP280;62026;39.230;9.122;2023-08-06T11:00:24;100648.00;;;28.06
67599;BMP280;62026;39.230;9.122;2023-08-06T11:02:53;100642.06;;;28.04
67599;BMP280;62026;39.230;9.122;2023-08-06T11:05:19;100642.66;;;27.98
67599;BMP280;62026;39.230;9.122;2023-08-06T11:07:45;100656.00;;;28.03
67599;BMP280;62026;39.230;9.122;2023-08-06T11:10:14;100656.25;;;28.10
67599;BMP280;62026;39.230;9.122;2023-08-06T11:12:40;100641.19;;;28.00
67599;BMP280;62026;39.230;9.122;2023-08-06T11:15:07;100655.19;;;28.02
67599;BMP280;62026;39.230;9.122;2023-08-06T11:17:34;100662.63;;;27.93
67599;BMP280;62026;39.230;9.122;2023-08-06T11:20:04;100667.28;;;27.93
67599;BMP280;62026;39.230;9.122;2023-08-06T11:22:31;100648.28;;;27.93
67599;BMP280;62026;39.230;9.122;2023-08-06T11:24:57;100678.47;;;27.91
67599;BMP280;62026;39.230;9.122;2023-08-06T11:27:27;100662.63;;;27.93
67599;BMP280;62026;39.230;9.122;2023-08-06T11:29:54;100658.53;;;27.87
67599;BMP280;62026;39.230;9.122;2023-08-06T11:32:20;100660.00;;;27.85
67599;BMP280;62026;39.230;9.122;2023-08-06T11:34:46;100665.44;;;27.85
67599;BMP280;62026;39.230;9.122;2023-08-06T11:37:12;100661.69;;;27.89
67599;BMP280;62026;39.230;9.122;2023-08-06T11:39:45;100680.25;;;27.87
67599;BMP280;62026;39.230;9.122;2023-08-06T11:42:12;100675.84;;;27.83
67599;BMP280;62026;39.230;9.122;2023-08-06T11:44:40;100679.34;;;27.83
67599;BMP280;62026;39.230;9.122;2023-08-06T11:47:16;100684.88;;;27.87
67599;BMP280;62026;39.230;9.122;2023-08-06T11:49:48;100675.63;;;27.88
67599;BMP280;62026;39.230;9.122;2023-08-06T11:52:18;100694.94;;;27.86
67599;BMP280;62026;39.230;9.122;2023-08-06T11:55:06;100682.31;;;27.90
67599;BMP280;62026;39.230;9.122;2023-08-06T11:57:35;100692.22;;;27.86
67599;BMP280;62026;39.230;9.122;2023-08-06T12:00:11;100692.38;;;27.90
67599;BMP280;62026;39.230;9.122;2023-08-06T12:02:45;100703.78;;;27.95
67599;BMP280;62026;39.230;9.122;2023-08-06T12:05:17;100696.88;;;27.86
67599;BMP280;62026;39.230;9.122;2023-08-06T12:07:50;100703.97;;;27.78
67599;BMP280;62026;39.230;9.122;2023-08-06T12:10:18;100705.28;;;27.72
67599;BMP280;62026;39.230;9.122;2023-08-06T12:12:48;100691.44;;;27.65
67599;BMP280;62026;39.230;9.122;2023-08-06T12:15:16;100708.22;;;27.67
67599;BMP280;62026;39.230;9.122;2023-08-06T12:17:43;100691.28;;;27.70
67599;BMP280;62026;39.230;9.122;2023-08-06T12:20:10;100699.16;;;27.63
67599;BMP280;62026;39.230;9.122;2023-08-06T12:22:37;100694.84;;;27.62
67599;BMP280;62026;39.230;9.122;2023-08-06T12:25:10;100697.09;;;27.60
67599;BMP280;62026;39.230;9.122;2023-08-06T12:27:44;100672.97;;;27.58
67599;BMP280;62026;39.230;9.122;2023-08-06T12:30:12;100688.81;;;27.56
67599;BMP280;62026;39.230;9.122;2023-08-06T12:32:39;100683.72;;;27.55
67599;BMP280;62026;39.230;9.122;2023-08-06T12:35:05;100683.38;;;27.56
67599;BMP280;62026;39.230;9.122;2023-08-06T12:37:33;100672.53;;;27.56
67599;BMP280;62026;39.230;9.122;2023-08-06T12:39:59;100687.22;;;27.55
67599;BMP280;62026;39.230;9.122;2023-08-06T12:42:25;100667.00;;;27.53
67599;BMP280;62026;39.230;9.122;2023-08-06T12:44:52;100684.06;;;27.53
67599;BMP280;62026;39.230;9.122;2023-08-06T12:47:18;100691.41;;;27.53
67599;BMP280;62026;39.230;9.122;2023-08-06T12:49:44;100684.63;;;27.59
67599;BMP280;62026;39.230;9.122;2023-08-06T12:52:10;100684.19;;;27.57
67599;BMP280;62026;39.230;9.122;2023-08-06T12:54:38;100678.63;;;27.53
67599;BMP280;62026;39.230;9.122;2023-08-06T12:57:05;100682.94;;;27.54
67599;BMP280;62026;39.230;9.122;2023-08-06T12:59:31;100676.88;;;27.49
67599;BMP280;62026;39.230;9.122;2023-08-06T13:01:59;100682.78;;;27.51
67599;BMP280;62026;39.230;9.122;2023-08-06T13:04:25;100695.22;;;27.52
67599;BMP280;62026;39.230;9.122;2023-08-06T13:06:51;100690.59;;;27.52
67599;BMP280;62026;39.230;9.122;2023-08-06T13:09:17;100682.78;;;27.51
67599;BMP280;62026;39.230;9.122;2023-08-06T13:11:43;100687.69;;;27.57
67599;BMP280;62026;39.230;9.122;2023-08-06T13:14:13;100674.28;;;27.61
67599;BMP280;62026;39.230;9.122;2023-08-06T13:16:42;100690.06;;;27.59
67599;BMP280;62026;39.230;9.122;2023-08-06T13:19:09;100678.13;;;27.60
67599;BMP280;62026;39.230;9.122;2023-08-06T13:22:05;100678.56;;;27.62
67599;BMP280;62026;39.230;9.122;2023-08-06T13:24:34;100678.13;;;27.60
67599;BMP280;62026;39.230;9.122;2023-08-06T13:27:01;100691.69;;;27.60
67599;BMP280;62026;39.230;9.122;2023-08-06T13:29:27;100687.06;;;27.60
67599;BMP280;62026;39.230;9.122;2023-08-06T13:31:54;100688.97;;;27.60
67599;BMP280;62026;39.230;9.122;2023-08-06T13:34:20;100692.13;;;27.62
67599;BMP280;62026;39.230;9.122;2023-08-06T13:36:46;100691.00;;;27.63
67599;BMP280;62026;39.230;9.122;2023-08-06T13:39:12;100689.53;;;27.65
67599;BMP280;62026;39.230;9.122;2023-08-06T13:41:38;100687.84;;;27.61
67599;BMP280;62026;39.230;9.122;2023-08-06T13:44:07;100675.53;;;27.63
67599;BMP280;62026;39.230;9.122;2023-08-06T13:46:33;100676.50;;;27.59
67599;BMP280;62026;39.230;9.122;2023-08-06T13:48:59;100691.41;;;27.53
67599;BMP280;62026;39.230;9.122;2023-08-06T13:51:25;100669.69;;;27.53
67599;BMP280;62026;39.230;9.122;2023-08-06T13:53:51;100669.22;;;27.51
67599;BMP280;62026;39.230;9.122;2023-08-06T13:56:18;100659.97;;;27.52
67599;BMP280;62026;39.230;9.122;2023-08-06T13:58:44;100671.00;;;27.47
67599;BMP280;62026;39.230;9.122;2023-08-06T14:01:13;100674.66;;;27.51
67599;BMP280;62026;39.230;9.122;2023-08-06T14:03:42;100656.47;;;27.51
67599;BMP280;62026;39.230;9.122;2023-08-06T14:06:08;100669.56;;;27.49
67599;BMP280;62026;39.230;9.122;2023-08-06T14:08:34;100677.38;;;27.51
67599;BMP280;62026;39.230;9.122;2023-08-06T14:11:00;100671.94;;;27.51